createdAt,value
2022-12-19T00:00:32.430Z,26.35
2022-12-19T00:05:38.167Z,31.92
2022-12-19T00:10:39.777Z,31.45
2022-12-19T00:15:41.458Z,32.35
2022-12-19T00:20:43.128Z,31.77
2022-12-19T00:25:44.727Z,28.45
2022-12-19T00:30:47.389Z,30.55
2022-12-19T00:35:49.027Z,30.00
2022-12-19T00:40:50.708Z,31.77
2022-12-19T00:45:52.365Z,31.33
2022-12-19T00:51:00.524Z,34.08
2022-12-19T00:56:04.838Z,31.27
2022-12-19T01:01:08.380Z,33.60
2022-12-19T01:11:12.867Z,31.52
2022-12-19T01:16:14.605Z,31.65
2022-12-19T01:21:16.247Z,31.25
2022-12-19T01:26:17.874Z,32.35
2022-12-19T01:31:19.595Z,31.15
2022-12-19T01:36:21.399Z,30.52
2022-12-19T01:41:23.187Z,31.48
2022-12-19T01:46:43.637Z,29.98
2022-12-19T01:51:48.193Z,30.90
2022-12-19T01:56:56.164Z,29.33
2022-12-19T02:02:07.565Z,31.48
2022-12-19T02:07:15.549Z,28.75
2022-12-19T02:12:18.199Z,30.98
2022-12-19T02:17:39.828Z,31.77
2022-12-19T02:23:00.448Z,31.17
2022-12-19T02:28:11.050Z,29.83
2022-12-19T02:33:43.500Z,28.23
2022-12-19T02:38:56.315Z,29.60
2022-12-19T02:43:59.219Z,30.50
2022-12-19T02:49:01.299Z,30.63
2022-12-19T02:54:03.464Z,29.25
2022-12-19T02:59:32.213Z,30.40
2022-12-19T03:05:14.291Z,29.92
2022-12-19T03:10:45.185Z,30.85
2022-12-19T03:15:47.515Z,30.05
2022-12-19T03:21:02.362Z,32.58
2022-12-19T03:26:12.658Z,32.03
2022-12-19T03:31:16.142Z,32.53
2022-12-19T03:36:24.349Z,29.55
2022-12-19T03:41:53.466Z,31.60
2022-12-19T03:47:00.779Z,30.70
2022-12-19T03:52:32.583Z,31.58
2022-12-19T03:57:46.805Z,29.35
2022-12-19T04:02:50.889Z,28.48
2022-12-19T04:08:01.779Z,30.23
2022-12-19T04:13:12.537Z,28.73
2022-12-19T04:18:15.341Z,29.58
2022-12-19T04:23:27.159Z,24.85
2022-12-19T04:28:45.956Z,29.60
2022-12-19T04:33:47.628Z,29.58
2022-12-19T04:38:49.273Z,31.17
2022-12-19T04:43:51.043Z,27.65
2022-12-19T04:48:52.768Z,29.60
2022-12-19T04:53:54.545Z,31.98
2022-12-19T04:58:57.984Z,32.00
2022-12-19T05:04:04.353Z,30.05
2022-12-19T05:09:06.735Z,31.58
2022-12-19T05:14:08.956Z,27.02
2022-12-19T05:19:10.883Z,29.92
2022-12-19T05:24:12.656Z,30.92
2022-12-19T05:29:14.317Z,31.17
2022-12-19T05:34:15.991Z,29.80
2022-12-19T05:39:17.614Z,30.52
2022-12-19T05:44:19.234Z,31.83
2022-12-19T05:49:20.973Z,29.73
2022-12-19T05:54:22.816Z,29.52
2022-12-19T05:59:24.541Z,31.40
2022-12-19T06:04:26.223Z,32.38
2022-12-19T06:09:29.037Z,31.60
2022-12-19T06:14:30.748Z,31.02
2022-12-19T06:19:32.512Z,32.25
2022-12-19T06:24:34.166Z,30.00
2022-12-19T06:29:35.897Z,30.27
2022-12-19T06:35:03.268Z,32.10
2022-12-19T06:39:59.379Z,30.90
2022-12-19T06:45:01.041Z,30.45
2022-12-19T06:50:03.870Z,30.05
2022-12-19T06:55:14.628Z,30.05
2022-12-19T07:00:16.989Z,29.58
2022-12-19T07:05:19.054Z,29.80
2022-12-19T07:10:20.875Z,30.92
2022-12-19T07:15:24.201Z,33.72
2022-12-19T07:20:45.336Z,33.95
2022-12-19T07:25:48.428Z,32.83
2022-12-19T07:30:52.322Z,32.65
2022-12-19T07:35:54.286Z,32.60
2022-12-19T07:40:56.419Z,32.22
2022-12-19T07:46:01.707Z,33.70
2022-12-19T07:51:04.632Z,30.15
2022-12-19T07:56:07.371Z,33.67
2022-12-19T08:01:10.057Z,33.10
2022-12-19T08:06:11.886Z,34.05
2022-12-19T08:11:18.888Z,36.47
2022-12-19T08:16:21.300Z,35.08
2022-12-19T08:21:24.213Z,36.95
2022-12-19T08:31:31.722Z,37.42
2022-12-19T08:36:33.845Z,37.05
2022-12-19T08:41:36.826Z,39.10
2022-12-19T08:46:38.784Z,38.53
2022-12-19T08:51:40.620Z,35.58
2022-12-19T08:56:46.031Z,35.92
2022-12-19T09:01:49.829Z,33.70
2022-12-19T09:06:51.697Z,36.67
2022-12-19T09:11:53.579Z,38.35
2022-12-19T09:16:55.535Z,35.22
2022-12-19T09:22:01.278Z,35.45
2022-12-19T09:27:03.280Z,39.40
2022-12-19T09:32:05.308Z,36.88
2022-12-19T09:37:08.595Z,36.53
2022-12-19T09:42:16.461Z,40.63
2022-12-19T09:47:23.298Z,36.30
2022-12-19T09:52:43.476Z,35.60
2022-12-19T09:57:51.128Z,40.65
2022-12-19T10:03:02.521Z,36.30
2022-12-19T10:08:23.192Z,37.55
2022-12-19T10:13:49.760Z,37.33
2022-12-19T10:19:14.186Z,35.72
2022-12-19T10:24:41.968Z,36.13
2022-12-19T10:30:20.862Z,37.20
2022-12-19T10:35:25.024Z,31.30
2022-12-19T10:40:34.592Z,29.45
2022-12-19T10:45:47.091Z,30.85
2022-12-19T10:50:49.590Z,31.48
2022-12-19T10:55:55.674Z,28.38
2022-12-19T11:01:18.953Z,28.58
2022-12-19T11:06:41.502Z,27.70
2022-12-19T11:13:25.840Z,27.45
2022-12-19T11:25:02.492Z,28.65
2022-12-19T11:30:42.815Z,30.58
2022-12-19T11:30:45.892Z,30.05
2022-12-19T11:33:17.543Z,31.05
2022-12-19T11:38:42.120Z,30.75
2022-12-19T11:44:01.955Z,34.15
2022-12-19T11:49:12.863Z,33.17
2022-12-19T11:54:25.455Z,35.28
2022-12-19T11:59:30.494Z,32.28
2022-12-19T12:05:20.653Z,30.40
2022-12-19T12:16:28.597Z,28.75
2022-12-19T12:22:29.115Z,27.58
2022-12-19T12:31:06.436Z,25.42
2022-12-19T12:31:18.719Z,27.13
2022-12-19T12:35:36.474Z,27.83
2022-12-19T12:39:02.441Z,28.95
2022-12-19T12:44:09.797Z,24.15
2022-12-19T12:49:36.315Z,23.38
2022-12-19T12:54:42.563Z,23.02
2022-12-19T12:59:46.438Z,21.75
2022-12-19T13:05:00.649Z,21.35
2022-12-19T13:15:27.440Z,21.60
2022-12-19T13:20:29.168Z,20.50
2022-12-19T13:25:33.725Z,18.95
2022-12-19T13:31:13.494Z,18.83
2022-12-19T13:39:33.753Z,18.83
2022-12-19T13:41:49.711Z,21.00
2022-12-19T13:46:54.556Z,20.50
2022-12-19T13:51:58.204Z,18.80
2022-12-19T13:57:08.200Z,20.98
2022-12-19T14:02:38.885Z,20.90
2022-12-19T14:07:47.617Z,18.92
2022-12-19T14:14:01.378Z,18.70
2022-12-19T14:18:44.375Z,16.02
2022-12-19T14:23:47.366Z,17.52
2022-12-19T14:29:04.763Z,16.10
2022-12-19T14:34:43.372Z,18.27
2022-12-19T14:39:33.581Z,16.92
2022-12-19T14:52:08.827Z,17.00
2022-12-19T14:54:22.928Z,17.35
2022-12-19T14:56:56.087Z,17.23
2022-12-19T15:01:40.016Z,18.33
2022-12-19T15:07:10.037Z,15.30
2022-12-19T15:14:03.996Z,17.52
2022-12-19T15:17:55.387Z,16.02
2022-12-19T15:22:57.110Z,16.48
2022-12-19T15:27:58.824Z,14.45
2022-12-19T15:33:00.500Z,14.30
2022-12-19T15:38:02.219Z,15.88
2022-12-19T15:43:04.866Z,15.90
2022-12-19T15:48:06.539Z,17.65
2022-12-19T15:53:40.175Z,16.45
2022-12-19T16:03:44.872Z,15.95
2022-12-19T16:08:46.691Z,15.80
2022-12-19T16:14:06.614Z,17.98
2022-12-19T16:19:24.281Z,16.10
2022-12-19T16:24:26.067Z,16.95
2022-12-19T16:29:31.227Z,16.33
2022-12-19T16:34:32.969Z,17.92
2022-12-19T16:39:34.740Z,15.90
2022-12-19T16:44:36.433Z,14.45
2022-12-19T16:49:38.232Z,15.05
2022-12-19T16:54:40.080Z,15.73
2022-12-19T16:59:42.405Z,12.88
2022-12-19T17:04:48.955Z,13.32
2022-12-19T17:09:54.195Z,12.82
2022-12-19T17:14:55.944Z,13.00
2022-12-19T17:19:57.630Z,12.02
2022-12-19T17:24:59.647Z,12.68
2022-12-19T17:30:01.292Z,12.43
2022-12-19T17:35:03.077Z,12.48
2022-12-19T17:40:15.984Z,10.85
2022-12-19T17:45:20.649Z,12.70
2022-12-19T17:50:28.067Z,13.90
2022-12-19T17:55:30.863Z,15.18
2022-12-19T18:00:33.719Z,15.65
2022-12-19T18:05:36.557Z,13.45
2022-12-19T18:10:38.261Z,13.90
2022-12-19T18:15:41.125Z,14.57
2022-12-19T18:20:44.394Z,13.93
2022-12-19T18:25:47.081Z,9.85
2022-12-19T18:30:50.028Z,14.15
2022-12-19T18:35:51.785Z,13.25
2022-12-19T18:40:53.531Z,12.90
2022-12-19T18:45:55.749Z,12.40
2022-12-19T18:50:59.062Z,11.60
2022-12-19T18:56:02.009Z,11.57
2022-12-19T19:01:05.597Z,11.63
2022-12-19T19:06:32.939Z,12.10
2022-12-19T19:11:37.703Z,12.88
2022-12-19T19:16:39.922Z,11.68
2022-12-19T19:21:42.611Z,11.60
2022-12-19T19:26:44.685Z,12.65
2022-12-19T19:31:48.765Z,13.55
2022-12-19T19:36:54.764Z,13.63
2022-12-19T19:41:56.545Z,11.75
2022-12-19T19:46:58.475Z,13.10
2022-12-19T19:52:03.237Z,14.48
2022-12-19T19:57:05.127Z,13.63
2022-12-19T20:02:08.530Z,13.45
2022-12-19T20:07:10.395Z,12.43
2022-12-19T20:12:14.195Z,12.68
2022-12-19T20:17:15.873Z,12.98
2022-12-19T20:22:17.963Z,12.32
2022-12-19T20:27:19.657Z,14.25
2022-12-19T20:32:31.782Z,14.55
2022-12-19T20:37:33.491Z,17.73
2022-12-19T20:42:35.869Z,16.02
2022-12-19T20:47:48.318Z,15.65
2022-12-19T20:52:50.053Z,15.63
2022-12-19T20:57:51.757Z,15.52
2022-12-19T21:03:26.206Z,16.50
2022-12-19T21:08:17.171Z,15.25
2022-12-19T21:13:19.614Z,14.63
2022-12-19T21:18:21.825Z,14.18
2022-12-19T21:23:25.538Z,12.38
2022-12-19T21:28:27.834Z,12.43
2022-12-19T21:33:30.207Z,13.00
2022-12-19T21:38:31.952Z,13.65
2022-12-19T21:43:35.180Z,12.00
2022-12-19T21:48:41.825Z,12.35
2022-12-19T21:53:43.587Z,12.60
2022-12-19T21:58:45.433Z,12.50
2022-12-19T22:03:47.633Z,11.93
2022-12-19T22:08:50.055Z,11.60
2022-12-19T22:13:51.779Z,11.98
2022-12-19T22:18:54.883Z,12.43
2022-12-19T22:23:58.545Z,11.77
2022-12-19T22:29:00.382Z,10.87
2022-12-19T22:34:04.750Z,10.45
2022-12-19T22:39:10.199Z,11.07
2022-12-19T22:44:25.421Z,11.25
2022-12-19T22:49:27.145Z,11.55
2022-12-19T22:54:28.927Z,10.40
2022-12-19T22:59:30.816Z,10.07
2022-12-19T23:04:32.625Z,11.00
2022-12-19T23:09:34.283Z,9.90
2022-12-19T23:14:35.906Z,7.70
2022-12-19T23:19:37.608Z,7.10
2022-12-19T23:24:40.294Z,7.22
2022-12-19T23:29:42.066Z,6.45
2022-12-19T23:34:43.951Z,6.03
2022-12-19T23:39:45.654Z,5.65
2022-12-19T23:44:47.323Z,7.60
2022-12-19T23:49:49.276Z,7.75
2022-12-19T23:54:51.425Z,7.40
2022-12-19T23:59:53.149Z,6.07
